Time;durP1;ratioP1;P1;durP2;ratioP2;P2;SDS_P1;SDS_P2;PMS_P1;PMS_P2;Temp;Humidity;BMP_temperature;BMP_pressure;BME280_temperature;BME280_humidity;BME280_pressure;Samples;Min_cycle;Max_cycle;Signal;HPM_P1;HPM_P2
2023/01/03 00:01:56;;;;;;;5.88;2.80;;;;;;;5.83;100.00;102118.41;6271579;28;20052;-74
2023/01/03 00:04:59;;;;;;;7.78;3.65;;;;;;;5.76;100.00;102127.16;6271271;28;20393;-74
2023/01/03 00:08:00;;;;;;;7.60;3.17;;;;;;;5.74;100.00;102132.41;6271051;28;20049;-74
2023/01/03 00:11:02;;;;;;;4.68;2.80;;;;;;;5.77;100.00;102129.78;6271341;28;20052;-74
2023/01/03 00:14:03;;;;;;;7.72;3.17;;;;;;;5.77;100.00;102142.81;6271437;28;20044;-73
2023/01/03 00:17:06;;;;;;;11.18;3.35;;;;;;;5.72;100.00;102141.13;6271538;28;20049;-74
2023/01/03 00:20:10;;;;;;;8.77;2.90;;;;;;;5.62;100.00;102144.72;6271507;28;20045;-74
2023/01/03 00:23:11;;;;;;;10.55;3.53;;;;;;;5.55;100.00;102136.97;6271378;28;20049;-74
2023/01/03 00:26:14;;;;;;;7.53;3.28;;;;;;;5.54;100.00;102150.00;6275526;28;20451;-74
2023/01/03 00:29:16;;;;;;;8.65;2.90;;;;;;;5.58;100.00;102149.94;6275940;28;20098;-74
2023/01/03 00:32:17;;;;;;;7.70;2.83;;;;;;;5.57;100.00;102150.84;6275233;28;20052;-74
2023/01/03 00:35:20;;;;;;;7.65;3.05;;;;;;;5.53;100.00;102153.47;6275917;28;20428;-74
2023/01/03 00:38:21;;;;;;;6.57;3.30;;;;;;;5.47;100.00;102157.03;6276309;28;20048;-74
2023/01/03 00:41:22;;;;;;;4.50;2.75;;;;;;;5.52;100.00;102155.22;6275993;28;20413;-74
2023/01/03 00:44:24;;;;;;;5.63;2.53;;;;;;;5.57;100.00;102157.78;6275670;28;20492;-74
2023/01/03 00:47:25;;;;;;;7.57;3.03;;;;;;;5.61;100.00;102159.50;6276288;28;20048;-74
2023/01/03 00:50:28;;;;;;;6.50;3.25;;;;;;;5.63;100.00;102154.25;6275644;28;20045;-74
2023/01/03 00:53:37;;;;;;;5.20;2.70;;;;;;;5.58;100.00;102159.50;6275780;28;20052;-74
2023/01/03 00:56:44;;;;;;;8.15;3.08;;;;;;;5.48;100.00;102166.56;6275729;28;20053;-74
2023/01/03 00:59:45;;;;;;;9.38;3.65;;;;;;;5.47;100.00;102174.41;6275710;28;20084;-74
2023/01/03 01:02:46;;;;;;;7.32;3.80;;;;;;;5.45;100.00;102163.13;6275578;28;20052;-73
2023/01/03 01:05:49;;;;;;;8.85;3.03;;;;;;;5.39;100.00;102164.03;6275487;28;20049;-74
2023/01/03 01:08:53;;;;;;;4.78;2.70;;;;;;;5.41;100.00;102167.53;6275165;28;20056;-74
2023/01/03 01:11:55;;;;;;;9.52;2.97;;;;;;;5.45;100.00;102178.75;6275334;28;20501;-74
2023/01/03 01:14:56;;;;;;;5.65;2.63;;;;;;;5.45;100.00;102181.38;6275995;28;20128;-74
2023/01/03 01:17:57;;;;;;;5.30;2.60;;;;;;;5.41;100.00;102192.72;6289379;28;20427;-74
2023/01/03 01:21:03;;;;;;;6.15;2.70;;;;;;;5.39;100.00;102197.94;6290223;28;20049;-74
2023/01/03 01:24:05;;;;;;;3.97;2.60;;;;;;;5.32;100.00;102191.91;6295123;28;20056;-74
2023/01/03 01:27:06;;;;;;;12.77;3.83;;;;;;;5.24;100.00;102195.47;6299626;28;20041;-74
2023/01/03 01:30:08;;;;;;;7.00;3.15;;;;;;;5.20;100.00;102196.38;6291647;28;20048;-74
2023/01/03 01:33:10;;;;;;;4.13;2.88;;;;;;;5.19;100.00;102190.28;6286939;28;20527;-74
2023/01/03 01:36:16;;;;;;;4.53;2.72;;;;;;;5.21;100.00;102200.69;6291145;28;20536;-73
2023/01/03 01:39:20;;;;;;;5.95;2.65;;;;;;;5.16;100.00;102208.53;6290363;28;20053;-74
2023/01/03 01:45:40;;;;;;;6.53;3.25;;;;;;;5.13;100.00;102212.91;6269149;28;20041;-74
2023/01/03 01:48:42;;;;;;;6.97;2.95;;;;;;;5.18;100.00;102204.19;6287766;28;20045;-74
2023/01/03 01:51:44;;;;;;;9.00;3.33;;;;;;;5.13;100.00;102207.69;6280967;28;20048;-74
2023/01/03 01:54:47;;;;;;;9.43;4.05;;;;;;;5.13;100.00;102215.50;6289702;28;20419;-74
2023/01/03 01:57:49;;;;;;;5.80;2.78;;;;;;;5.18;100.00;102208.53;6291981;28;20047;-74
2023/01/03 02:00:51;;;;;;;5.47;3.13;;;;;;;5.22;100.00;102218.94;6277368;28;20059;-74
2023/01/03 02:04:00;;;;;;;6.07;3.03;;;;;;;5.15;100.00;102222.44;6281923;28;20045;-74
2023/01/03 02:07:03;;;;;;;12.40;3.53;;;;;;;5.26;100.00;102230.19;6287630;28;20053;-74
2023/01/03 02:10:06;;;;;;;7.45;3.28;;;;;;;5.30;100.00;102234.50;6285312;28;20048;-74
2023/01/03 02:13:16;;;;;;;9.10;3.10;;;;;;;5.24;100.00;102234.56;6298917;28;20048;-74
2023/01/03 02:16:29;;;;;;;7.28;2.85;;;;;;;5.27;100.00;102240.63;6285573;28;20045;-74
2023/01/03 02:20:10;;;;;;;6.85;3.30;;;;;;;5.37;100.00;102241.41;6286984;28;20244;-73
2023/01/03 02:23:30;;;;;;;6.93;3.15;;;;;;;5.29;100.00;102241.47;6236663;28;20060;-74
2023/01/03 02:26:55;;;;;;;5.68;2.60;;;;;;;5.32;100.00;102244.06;6263242;28;20045;-74
2023/01/03 02:30:27;;;;;;;9.70;3.75;;;;;;;5.34;100.00;102247.50;6276635;28;20044;-74
2023/01/03 02:33:36;;;;;;;9.68;3.60;;;;;;;5.30;100.00;102245.78;6260223;28;20052;-74
2023/01/03 02:36:47;;;;;;;11.23;3.40;;;;;;;5.26;100.00;102245.81;6277713;28;20049;-74
2023/01/03 02:39:54;;;;;;;6.72;3.95;;;;;;;5.26;100.00;102246.69;6277059;28;20052;-74
2023/01/03 02:43:04;;;;;;;7.68;2.95;;;;;;;5.30;100.00;102251.00;6276524;28;20042;-74
2023/01/03 02:46:13;;;;;;;9.85;3.63;;;;;;;5.41;100.00;102247.47;6280196;28;20412;-74
2023/01/03 02:49:21;;;;;;;5.45;2.92;;;;;;;5.35;100.00;102251.81;6288070;28;20053;-74
2023/01/03 02:52:27;;;;;;;6.93;3.25;;;;;;;5.37;100.00;102259.66;6297606;28;20049;-74
2023/01/03 02:55:32;;;;;;;9.50;3.70;;;;;;;5.35;100.00;102258.78;6283153;28;20045;-74
2023/01/03 02:58:37;;;;;;;7.32;3.35;;;;;;;5.20;100.00;102254.56;6297181;28;20056;-74
2023/01/03 03:01:43;;;;;;;6.93;4.18;;;;;;;5.20;100.00;102259.75;6297642;28;20056;-74
2023/01/03 03:04:48;;;;;;;8.82;3.38;;;;;;;5.25;100.00;102260.59;6290372;28;20041;-74
2023/01/03 03:07:49;;;;;;;10.43;3.63;;;;;;;5.24;100.00;102268.44;6255586;28;20070;-74
2023/01/03 03:14:17;;;;;;;9.70;3.95;;;;;;;5.21;100.00;102266.69;6273008;28;21615;-74
2023/01/03 03:17:24;;;;;;;4.90;2.88;;;;;;;5.23;100.00;102274.53;6273420;28;20131;-74
2023/01/03 03:30:30;;;;;;;8.85;2.97;;;;;;;5.02;100.00;102283.34;6294899;28;20573;-74
2023/01/03 03:33:38;;;;;;;6.53;3.53;;;;;;;5.04;100.00;102289.38;6284349;28;20059;-74
2023/01/03 03:36:48;;;;;;;11.45;4.25;;;;;;;5.09;100.00;102292.84;6269274;28;20393;-74
2023/01/03 03:46:41;;;;;;;6.70;3.63;;;;;;;5.03;100.00;102298.09;6271696;28;20080;-74
2023/01/03 03:49:49;;;;;;;13.50;4.00;;;;;;;5.02;100.00;102299.81;6280940;28;20056;-74
2023/01/03 03:52:54;;;;;;;7.78;4.85;;;;;;;5.05;100.00;102293.75;6280720;28;20066;-74
2023/01/03 03:56:00;;;;;;;12.93;3.95;;;;;;;5.05;100.00;102294.59;6284790;28;20045;-74
2023/01/03 03:59:05;;;;;;;8.73;3.97;;;;;;;4.92;100.00;102302.50;6284954;28;20056;-74
2023/01/03 04:02:10;;;;;;;8.65;4.50;;;;;;;4.96;100.00;102299.88;6283541;28;20051;-74
2023/01/03 04:05:17;;;;;;;8.95;3.90;;;;;;;4.98;100.00;102302.47;6296344;28;20044;-74
2023/01/03 04:08:19;;;;;;;11.13;4.32;;;;;;;4.98;100.00;102305.91;6296650;28;20044;-74
2023/01/03 04:11:20;;;;;;;10.40;4.68;;;;;;;4.96;100.00;102299.88;6285011;28;20072;-74
2023/01/03 04:14:22;;;;;;;6.25;3.92;;;;;;;4.91;100.00;102296.44;6293740;28;20056;-74
2023/01/03 04:17:23;;;;;;;6.68;3.30;;;;;;;4.89;100.00;102300.75;6291239;28;20045;-73
2023/01/03 04:20:26;;;;;;;9.20;3.65;;;;;;;4.87;100.00;102296.44;6275098;28;20059;-74
2023/01/03 04:23:27;;;;;;;7.57;3.80;;;;;;;4.81;100.00;102303.41;6280688;28;20053;-74
2023/01/03 04:26:32;;;;;;;7.95;4.28;;;;;;;4.74;100.00;102309.50;6279291;28;20048;-73
2023/01/03 04:29:33;;;;;;;7.22;3.83;;;;;;;4.71;100.00;102312.13;6271378;28;20045;-74
2023/01/03 04:32:35;;;;;;;7.95;3.53;;;;;;;4.73;100.00;102315.59;6278573;28;20048;-74
2023/01/03 04:35:38;;;;;;;7.18;3.85;;;;;;;4.73;100.00;102317.34;6279662;28;20049;-74
2023/01/03 04:38:39;;;;;;;7.40;3.42;;;;;;;4.71;100.00;102319.06;6287626;28;20049;-74
2023/01/03 04:41:40;;;;;;;7.10;3.67;;;;;;;4.61;100.00;102315.63;6281171;28;20048;-73
2023/01/03 04:44:41;;;;;;;6.65;3.47;;;;;;;4.65;100.00;102319.09;6287831;28;20059;-74
2023/01/03 04:47:42;;;;;;;8.38;3.92;;;;;;;4.65;100.00;102329.53;6287336;28;20488;-74
2023/01/03 04:50:52;;;;;;;5.00;3.05;;;;;;;4.57;100.00;102324.31;6296148;28;20071;-74
2023/01/03 04:53:54;;;;;;;6.38;3.53;;;;;;;4.57;100.00;102317.38;6295575;28;20189;-74
2023/01/03 04:56:55;;;;;;;10.73;4.30;;;;;;;4.60;100.00;102315.66;6296116;28;20056;-74
2023/01/03 04:59:57;;;;;;;6.00;3.38;;;;;;;4.58;100.00;102324.31;6284058;28;20061;-74
2023/01/03 05:02:58;;;;;;;8.23;3.83;;;;;;;4.55;100.00;102326.09;6295671;28;20423;-74
2023/01/03 05:06:02;;;;;;;12.82;4.32;;;;;;;4.51;100.00;102329.56;6277816;28;20052;-73
2023/01/03 05:09:04;;;;;;;9.88;3.95;;;;;;;4.51;100.00;102329.56;6267635;28;20057;-74
2023/01/03 05:12:06;;;;;;;8.25;3.67;;;;;;;4.53;100.00;102320.00;6277158;28;20496;-74
2023/01/03 05:15:08;;;;;;;17.95;5.57;;;;;;;4.50;100.00;102331.31;6268359;28;20060;-74
2023/01/03 05:18:10;;;;;;;8.85;5.32;;;;;;;4.44;100.00;102325.22;6266348;28;20051;-74
2023/01/03 05:27:53;;;;;;;9.40;5.07;;;;;;;4.38;100.00;102331.31;6283273;28;20077;-74
2023/01/03 05:30:57;;;;;;;11.57;4.90;;;;;;;4.39;100.00;102333.03;6290975;28;20049;-74
2023/01/03 05:33:59;;;;;;;12.45;5.18;;;;;;;4.33;100.00;102333.06;6296978;28;20059;-74
2023/01/03 05:37:01;;;;;;;13.60;5.43;;;;;;;4.39;100.00;102338.25;6283797;28;20044;-73
2023/01/03 05:40:03;;;;;;;16.13;5.13;;;;;;;4.33;100.00;102348.69;6277949;28;20048;-73
2023/01/03 05:43:04;;;;;;;14.13;6.20;;;;;;;4.29;100.00;102345.22;6287553;28;20044;-74
2023/01/03 05:46:06;;;;;;;15.55;6.30;;;;;;;4.24;100.00;102339.16;6285729;28;20047;-73
2023/01/03 05:49:07;;;;;;;18.08;6.50;;;;;;;4.31;100.00;102330.47;6274085;28;20064;-73
2023/01/03 05:52:10;;;;;;;15.82;7.03;;;;;;;4.24;100.00;102339.16;6275417;28;20057;-74
2023/01/03 05:55:11;;;;;;;13.85;5.63;;;;;;;4.15;100.00;102340.91;6290884;28;20044;-74
2023/01/03 05:58:13;;;;;;;12.48;5.30;;;;;;;4.23;100.00;102344.38;6288698;28;20049;-73
2023/01/03 06:01:15;;;;;;;14.57;6.32;;;;;;;4.25;100.00;102355.63;6275544;28;20045;-74
2023/01/03 06:04:16;;;;;;;17.63;7.30;;;;;;;4.19;100.00;102350.44;6259926;28;20050;-74
2023/01/03 06:07:19;;;;;;;16.90;6.53;;;;;;;4.20;100.00;102355.63;6285758;28;20051;-74
2023/01/03 06:10:20;;;;;;;17.95;7.55;;;;;;;4.26;100.00;102354.75;6290819;28;20048;-74
2023/01/03 06:13:22;;;;;;;14.10;6.20;;;;;;;4.25;100.00;102355.63;6282787;28;20053;-73
2023/01/03 06:19:44;;;;;;;14.57;6.57;;;;;;;4.19;100.00;102363.47;6273032;28;20045;-74
2023/01/03 06:22:46;;;;;;;14.43;6.93;;;;;;;4.11;100.00;102366.06;6274210;28;20053;-74
2023/01/03 06:25:48;;;;;;;16.23;6.70;;;;;;;4.12;100.00;102366.91;6271430;28;20041;-73
2023/01/03 06:28:50;;;;;;;14.80;6.40;;;;;;;4.19;100.00;102379.06;6273674;28;20049;-74
2023/01/03 06:31:51;;;;;;;22.23;7.45;;;;;;;4.17;100.00;102386.00;6276366;28;20072;-73
2023/01/03 06:34:52;;;;;;;14.82;6.72;;;;;;;4.15;100.00;102392.94;6288484;28;20048;-73
2023/01/03 06:37:55;;;;;;;17.25;5.93;;;;;;;4.10;100.00;102389.47;6288245;28;20052;-74
2023/01/03 06:40:56;;;;;;;15.35;6.10;;;;;;;4.02;100.00;102394.66;6298051;28;20049;-73
2023/01/03 06:43:58;;;;;;;20.52;6.95;;;;;;;3.99;100.00;102399.84;6286973;28;20048;-74
2023/01/03 06:53:40;;;;;;;18.80;5.82;;;;;;;3.96;100.00;102399.88;6281093;28;20440;-74
2023/01/03 06:56:42;;;;;;;14.63;5.93;;;;;;;4.01;100.00;102408.53;6272933;28;20444;-74
2023/01/03 06:59:43;;;;;;;16.65;7.15;;;;;;;3.88;100.00;102404.19;6281715;28;20049;-74
2023/01/03 07:02:44;;;;;;;18.02;7.45;;;;;;;3.93;100.00;102402.47;6297582;28;20075;-73
2023/01/03 07:05:46;;;;;;;18.75;7.97;;;;;;;3.84;100.00;102405.06;6297580;28;20052;-74
2023/01/03 07:08:48;;;;;;;22.00;7.93;;;;;;;3.87;100.00;102408.53;6297703;28;20526;-73
2023/01/03 07:11:50;;;;;;;18.83;7.43;;;;;;;3.92;100.00;102419.81;6279108;28;20056;-74
2023/01/03 07:14:51;;;;;;;15.85;6.80;;;;;;;3.83;100.00;102418.94;6277193;28;20041;-74
2023/01/03 07:17:52;;;;;;;16.23;6.60;;;;;;;3.84;100.00;102416.31;6277696;28;20037;-74
2023/01/03 07:20:54;;;;;;;15.93;7.40;;;;;;;3.84;100.00;102418.94;6282261;28;20052;-74
2023/01/03 07:24:00;;;;;;;17.30;6.60;;;;;;;3.89;100.00;102418.94;6272082;28;20056;-74
2023/01/03 07:27:01;;;;;;;15.90;6.28;;;;;;;3.84;100.00;102424.13;6283450;28;20045;-73
2023/01/03 07:30:03;;;;;;;18.17;7.70;;;;;;;3.87;100.00;102423.28;6282381;28;20060;-74
2023/01/03 07:33:05;;;;;;;15.30;7.40;;;;;;;3.76;100.00;102423.25;6286804;28;20048;-74
2023/01/03 07:36:09;;;;;;;20.30;8.57;;;;;;;3.87;100.00;102426.75;6288525;28;20041;-74
2023/01/03 07:39:11;;;;;;;17.05;7.57;;;;;;;3.78;100.00;102432.78;6285495;28;20048;-74
2023/01/03 07:45:31;;;;;;;19.88;8.50;;;;;;;3.86;100.00;102440.63;6292297;28;20048;-75
2023/01/03 07:48:33;;;;;;;20.10;8.20;;;;;;;3.85;100.00;102443.19;6282545;28;20059;-74
2023/01/03 07:51:34;;;;;;;16.95;7.85;;;;;;;3.84;100.00;102444.94;6283383;28;20048;-74
2023/01/03 07:54:37;;;;;;;20.80;7.38;;;;;;;3.85;100.00;102443.19;6288334;28;20526;-74
2023/01/03 07:57:38;;;;;;;21.23;7.95;;;;;;;3.86;100.00;102447.53;6271986;28;20056;-73
2023/01/03 08:00:40;;;;;;;19.25;7.22;;;;;;;3.87;100.00;102449.28;6271371;28;20055;-74
2023/01/03 08:03:42;;;;;;;20.35;6.57;;;;;;;3.90;100.00;102446.66;6287590;28;20045;-73
2023/01/03 08:06:43;;;;;;;17.60;7.10;;;;;;;3.89;100.00;102448.41;6264457;28;20048;-74
2023/01/03 08:13:17;;;;;;;17.67;7.72;;;;;;;3.85;100.00;102456.19;6270256;28;20499;-74
2023/01/03 08:16:19;;;;;;;21.30;8.23;;;;;;;3.88;100.00;102456.22;6283533;28;20044;-74
2023/01/03 08:19:20;;;;;;;26.63;9.70;;;;;;;3.86;100.00;102453.63;6260423;28;20052;-72
2023/01/03 08:22:22;;;;;;;17.17;6.93;;;;;;;3.88;100.00;102457.06;6268217;28;20072;-74
2023/01/03 08:25:25;;;;;;;18.58;7.82;;;;;;;3.77;100.00;102454.47;6281256;28;20052;-73
2023/01/03 08:28:26;;;;;;;17.00;7.43;;;;;;;3.82;100.00;102475.28;6281066;28;20092;-75
2023/01/03 08:31:33;;;;;;;20.23;8.50;;;;;;;3.78;100.00;102474.41;6287348;28;20056;-75
2023/01/03 08:34:37;;;;;;;16.60;8.18;;;;;;;3.77;100.00;102480.47;6290652;28;20052;-74
2023/01/03 08:37:39;;;;;;;19.35;7.85;;;;;;;3.74;100.00;102476.97;6287271;28;20048;-74
2023/01/03 08:40:42;;;;;;;22.33;9.13;;;;;;;3.71;100.00;102480.44;6291128;28;20048;-74
2023/01/03 08:43:46;;;;;;;19.08;7.85;;;;;;;3.67;100.00;102483.00;6258059;28;20116;-74
2023/01/03 08:46:51;;;;;;;18.17;7.90;;;;;;;3.64;100.00;102489.09;6249970;28;20061;-74
2023/01/03 08:49:54;;;;;;;17.80;8.55;;;;;;;3.65;100.00;102489.94;6273094;28;20053;-73
2023/01/03 08:52:56;;;;;;;17.67;7.88;;;;;;;3.65;100.00;102496.03;6294749;28;20045;-74
2023/01/03 08:55:59;;;;;;;16.40;6.93;;;;;;;3.72;100.00;102500.34;6300610;28;20053;-74
2023/01/03 08:59:00;;;;;;;19.58;7.25;;;;;;;3.74;100.00;102501.25;6300454;28;20058;-74
2023/01/03 09:02:02;;;;;;;18.67;8.25;;;;;;;3.75;100.00;102500.38;6300350;28;20055;-74
2023/01/03 09:05:03;;;;;;;24.20;9.00;;;;;;;3.76;100.00;102503.84;6300158;28;20053;-74
2023/01/03 09:08:05;;;;;;;19.58;8.48;;;;;;;3.84;100.00;102496.94;6300415;28;20049;-74
2023/01/03 09:11:09;;;;;;;19.70;8.02;;;;;;;3.90;100.00;102503.88;6300133;28;20048;-74
2023/01/03 09:14:11;;;;;;;24.05;6.88;;;;;;;3.97;100.00;102508.25;6300117;28;20049;-74
2023/01/03 09:17:12;;;;;;;29.83;9.32;;;;;;;4.03;100.00;102516.06;6300391;28;20049;-74
2023/01/03 09:20:15;;;;;;;17.85;7.50;;;;;;;4.07;100.00;102517.81;6300097;28;20048;-74
2023/01/03 09:23:16;;;;;;;22.27;9.57;;;;;;;4.12;100.00;102523.88;6299911;28;20045;-74
2023/01/03 09:26:19;;;;;;;17.13;8.10;;;;;;;4.11;100.00;102522.16;6299890;28;20052;-74
2023/01/03 09:29:20;;;;;;;24.05;9.23;;;;;;;4.13;100.00;102522.13;6300014;28;20051;-74
2023/01/03 09:32:21;;;;;;;22.55;10.05;;;;;;;4.15;100.00;102515.22;6299542;28;20499;-74
2023/01/03 09:35:23;;;;;;;20.77;7.75;;;;;;;4.18;100.00;102516.09;6299607;28;20048;-74
2023/01/03 09:38:24;;;;;;;21.90;7.75;;;;;;;4.25;100.00;102516.97;6299669;28;20059;-73
2023/01/03 09:41:27;;;;;;;23.25;8.77;;;;;;;4.27;100.00;102516.13;6299352;28;20053;-74
2023/01/03 09:44:29;;;;;;;15.77;7.43;;;;;;;4.32;100.00;102508.31;6299480;28;20044;-74
2023/01/03 09:47:35;;;;;;;17.73;8.38;;;;;;;4.39;100.00;102520.44;6271505;28;20510;-76
2023/01/03 09:50:38;;;;;;;19.42;8.52;;;;;;;4.38;100.00;102510.03;6262259;28;20831;-72
2023/01/03 10:03:51;;;;;;;23.27;9.18;;;;;;;4.55;100.00;102510.94;6281422;28;20552;-75
2023/01/03 10:07:03;;;;;;;18.57;8.00;;;;;;;4.67;100.00;102507.44;6273825;28;20048;-74
2023/01/03 10:10:15;;;;;;;23.88;9.23;;;;;;;4.71;100.00;102504.81;6272805;28;20655;-74
2023/01/03 10:13:31;;;;;;;26.15;10.32;;;;;;;4.73;100.00;102499.63;6273652;28;20056;-75
2023/01/03 10:16:46;;;;;;;23.00;8.27;;;;;;;4.79;100.00;102497.88;6273391;28;20075;-74
2023/01/03 10:20:03;;;;;;;28.95;9.15;;;;;;;4.82;100.00;102499.63;6273803;28;20056;-74
2023/01/03 10:23:06;;;;;;;20.52;10.13;;;;;;;4.84;100.00;102497.88;6273990;28;20056;-74
2023/01/03 10:26:11;;;;;;;21.58;8.88;;;;;;;4.87;100.00;102497.00;6273487;28;20045;-74
2023/01/03 10:29:17;;;;;;;21.73;9.93;;;;;;;4.88;100.00;102491.78;6273708;28;20044;-74
2023/01/03 10:32:41;;;;;;;22.38;10.07;;;;;;;4.94;100.00;102489.16;6273231;28;20056;-74
2023/01/03 10:35:42;;;;;;;23.52;9.45;;;;;;;5.02;100.00;102495.22;6273423;28;20488;-74
2023/01/03 10:38:44;;;;;;;25.75;9.43;;;;;;;5.06;100.00;102496.97;6273475;28;20045;-74
2023/01/03 10:41:47;;;;;;;28.73;10.68;;;;;;;5.11;100.00;102480.44;6273129;28;20495;-74
2023/01/03 10:45:01;;;;;;;30.17;9.75;;;;;;;5.16;100.00;102479.56;6273139;28;20049;-74
2023/01/03 10:48:02;;;;;;;24.27;10.02;;;;;;;5.08;100.00;102473.50;6273258;28;20174;-74
2023/01/03 10:51:06;;;;;;;24.15;10.38;;;;;;;5.22;100.00;102470.84;6273038;28;20052;-74
2023/01/03 10:54:11;;;;;;;26.35;9.45;;;;;;;5.24;100.00;102464.78;6273136;28;20049;-74
2023/01/03 10:57:35;;;;;;;21.58;9.27;;;;;;;5.30;100.00;102451.69;6272785;28;20386;-74
2023/01/03 11:00:38;;;;;;;23.58;8.60;;;;;;;5.40;100.00;102462.97;6273082;28;20049;-73
2023/01/03 11:03:43;;;;;;;20.58;9.68;;;;;;;5.39;100.00;102461.22;6272752;28;20071;-74
2023/01/03 11:06:59;;;;;;;22.77;9.13;;;;;;;5.44;100.00;102453.38;6272824;28;20053;-74
2023/01/03 11:10:01;;;;;;;24.02;10.25;;;;;;;5.47;100.00;102454.25;6267114;28;20059;-74
2023/01/03 11:13:18;;;;;;;26.65;10.45;;;;;;;5.53;100.00;102453.34;6283079;28;20052;-74
2023/01/03 11:16:20;;;;;;;25.25;9.95;;;;;;;5.52;100.00;102449.00;6275908;28;20053;-74
2023/01/03 11:19:26;;;;;;;26.92;10.32;;;;;;;5.58;100.00;102452.44;6272644;28;20049;-74
2023/01/03 11:22:37;;;;;;;20.85;8.98;;;;;;;5.63;100.00;102457.63;6272189;28;20071;-74
2023/01/03 11:25:47;;;;;;;23.67;10.45;;;;;;;5.73;100.00;102461.09;6282355;28;20048;-74
2023/01/03 11:29:00;;;;;;;26.13;10.18;;;;;;;5.80;100.00;102452.31;6276886;28;20241;-74
2023/01/03 11:32:17;;;;;;;27.60;9.10;;;;;;;5.89;100.00;102449.66;6291489;28;20052;-74
2023/01/03 11:35:37;;;;;;;24.83;10.05;;;;;;;6.00;100.00;102458.34;6285891;28;20056;-74
2023/01/03 11:38:48;;;;;;;21.92;10.15;;;;;;;5.99;100.00;102443.53;6297067;28;20048;-74
2023/01/03 11:42:07;;;;;;;21.33;10.18;;;;;;;6.04;100.00;102446.09;6296580;28;20048;-75
2023/01/03 11:45:31;;;;;;;27.03;10.23;;;;;;;6.03;100.00;102433.94;6292864;28;20052;-74
2023/01/03 11:48:52;;;;;;;26.30;10.50;;;;;;;6.02;100.00;102433.06;6279861;28;20762;-74
2023/01/03 11:52:12;;;;;;;23.88;10.82;;;;;;;5.98;100.00;102420.94;6271743;28;20059;-74
2023/01/03 11:55:27;;;;;;;24.63;10.52;;;;;;;5.99;100.00;102424.41;6271827;28;20056;-74
2023/01/03 11:58:44;;;;;;;29.17;10.38;;;;;;;6.00;100.00;102407.88;6271768;28;20052;-73
2023/01/03 12:02:01;;;;;;;23.00;9.23;;;;;;;5.99;100.00;102411.34;6272696;28;20501;-75
2023/01/03 12:05:17;;;;;;;23.48;10.45;;;;;;;6.06;100.00;102405.22;6288146;28;20062;-75
2023/01/03 12:08:55;;;;;;;22.98;10.00;;;;;;;6.12;100.00;102413.00;6296621;28;20446;-75
2023/01/03 12:12:08;;;;;;;26.42;11.68;;;;;;;6.17;100.00;102407.72;6296291;28;20059;-75
2023/01/03 12:15:19;;;;;;;23.45;10.02;;;;;;;6.20;100.00;102402.50;6296212;28;20146;-75
2023/01/03 12:18:28;;;;;;;24.00;10.10;;;;;;;6.28;100.00;102403.31;6296587;28;20419;-75
2023/01/03 12:21:34;;;;;;;;;;;;;;;6.30;100.00;102399.78;6295879;28;20052;-75
2023/01/03 12:24:42;;;;;;;20.08;8.45;;;;;;;6.29;100.00;102397.19;6296355;28;20034;-74
2023/01/03 12:27:48;;;;;;;22.65;9.73;;;;;;;6.34;100.00;102392.78;6296056;28;20040;-75
2023/01/03 12:30:56;;;;;;;22.80;10.20;;;;;;;6.33;100.00;102389.31;6296431;28;20063;-74
2023/01/03 12:34:05;;;;;;;17.77;9.35;;;;;;;6.33;100.00;102385.84;6295925;28;20051;-74
2023/01/03 12:37:13;;;;;;;21.15;9.38;;;;;;;6.34;100.00;102371.91;6296304;28;20053;-75
2023/01/03 12:40:24;;;;;;;22.58;10.20;;;;;;;6.35;100.00;102376.25;6296001;28;20044;-75
2023/01/03 12:43:33;;;;;;;18.45;9.43;;;;;;;6.42;100.00;102369.22;6295940;28;20045;-75
2023/01/03 12:46:39;;;;;;;23.67;9.93;;;;;;;6.47;100.00;102367.44;6296025;28;20059;-74
2023/01/03 12:49:48;;;;;;;28.60;9.43;;;;;;;6.47;100.00;102368.28;6296101;28;20045;-75
2023/01/03 12:52:58;;;;;;;22.20;8.75;;;;;;;6.52;100.00;102353.44;6295845;28;20056;-74
2023/01/03 12:56:14;;;;;;;19.17;8.15;;;;;;;6.57;100.00;102349.03;6295928;28;20484;-74
2023/01/03 12:59:38;;;;;;;18.00;8.43;;;;;;;6.61;100.00;102348.13;6295817;28;20056;-75
2023/01/03 13:02:48;;;;;;;22.38;9.38;;;;;;;6.61;100.00;102347.25;6295668;28;20048;-75
2023/01/03 13:05:52;;;;;;;21.75;9.20;;;;;;;6.66;100.00;102340.22;6295591;28;20052;-74
2023/01/03 13:09:00;;;;;;;23.02;8.40;;;;;;;6.72;100.00;102344.50;6295761;28;20114;-74
2023/01/03 13:12:07;;;;;;;16.00;7.82;;;;;;;6.80;100.00;102340.91;6295437;28;20076;-75
2023/01/03 13:15:16;;;;;;;17.95;7.90;;;;;;;6.80;100.00;102338.31;6295669;28;20059;-75
2023/01/03 13:18:30;;;;;;;20.27;7.05;;;;;;;6.85;100.00;102331.28;6295524;28;20047;-75
2023/01/03 13:21:50;;;;;;;13.65;6.10;;;;;;;6.87;100.00;102326.06;6295558;28;20135;-75
2023/01/03 13:24:53;;;;;;;13.93;6.65;;;;;;;6.92;100.00;102318.16;6295557;28;20048;-75
2023/01/03 13:27:56;;;;;;;12.68;6.15;;;;;;;6.95;100.00;102328.53;6295531;28;20499;-74
2023/01/03 13:31:46;;;;;;;10.43;5.53;;;;;;;6.97;100.00;102326.78;6296026;28;20048;-75
2023/01/03 13:35:19;;;;;;;15.50;6.00;;;;;;;7.03;100.00;102331.94;6300125;28;20049;-75
2023/01/03 13:38:27;;;;;;;10.65;4.97;;;;;;;7.09;100.00;102337.09;6299720;28;20502;-75
2023/01/03 13:41:35;;;;;;;13.05;5.45;;;;;;;7.07;100.00;102329.25;6299405;28;20052;-75
2023/01/03 13:44:36;;;;;;;12.80;4.93;;;;;;;7.06;100.00;102326.66;6299552;28;20052;-74
2023/01/03 13:47:41;;;;;;;16.98;5.47;;;;;;;7.07;100.00;102333.63;6299640;28;20444;-75
2023/01/03 13:51:03;;;;;;;10.35;3.97;;;;;;;7.05;100.00;102332.78;6299484;28;20059;-75
2023/01/03 13:54:25;;;;;;;8.85;4.35;;;;;;;7.07;100.00;102329.25;6299345;28;20056;-75
2023/01/03 13:57:54;;;;;;;10.77;4.03;;;;;;;7.08;100.00;102335.34;6299492;28;20053;-74
2023/01/03 14:00:57;;;;;;;10.95;5.07;;;;;;;7.09;100.00;102335.34;6292865;28;20049;-75
2023/01/03 14:04:25;;;;;;;8.70;3.90;;;;;;;7.09;100.00;102337.97;6298971;28;20071;-75
2023/01/03 14:08:03;;;;;;;6.22;3.58;;;;;;;7.07;100.00;102341.47;6299279;28;20484;-75
2023/01/03 14:11:36;;;;;;;6.18;3.20;;;;;;;7.09;100.00;102335.34;6299044;28;20419;-75
2023/01/03 14:14:40;;;;;;;6.28;3.17;;;;;;;7.15;100.00;102347.47;6298843;28;20055;-75
2023/01/03 14:17:46;;;;;;;11.73;3.55;;;;;;;7.20;100.00;102334.31;6299247;28;20056;-74
2023/01/03 14:20:51;;;;;;;3.83;2.90;;;;;;;7.21;100.00;102334.28;6298477;28;20067;-74
2023/01/03 14:23:57;;;;;;;4.75;2.90;;;;;;;7.20;100.00;102326.50;6298593;28;20055;-74
2023/01/03 14:27:04;;;;;;;7.28;2.90;;;;;;;7.21;100.00;102341.28;6295517;28;20048;-74
2023/01/03 14:30:20;;;;;;;11.50;2.67;;;;;;;7.35;100.00;102334.97;6270550;28;20044;-75
2023/01/03 14:33:23;;;;;;;4.95;2.15;;;;;;;7.30;100.00;102343.75;6272935;28;20057;-74
2023/01/03 14:36:25;;;;;;;5.78;2.65;;;;;;;7.28;100.00;102346.41;6273157;28;20398;-74
2023/01/03 14:39:31;;;;;;;7.15;3.17;;;;;;;7.31;100.00;102341.16;6272853;28;20056;-75
2023/01/03 14:42:32;;;;;;;6.97;2.55;;;;;;;7.32;100.00;102349.84;6272561;28;20630;-75
2023/01/03 14:45:36;;;;;;;7.93;2.65;;;;;;;7.34;100.00;102348.06;6272580;28;20048;-75
2023/01/03 14:48:37;;;;;;;3.65;2.40;;;;;;;7.33;100.00;102355.06;6271699;28;20049;-74
2023/01/03 14:51:39;;;;;;;10.85;3.78;;;;;;;7.40;100.00;102349.72;6268449;28;20057;-75
2023/01/03 14:54:44;;;;;;;5.28;2.70;;;;;;;7.50;100.00;102354.81;6271430;28;20045;-74
2023/01/03 14:57:48;;;;;;;6.75;2.85;;;;;;;7.54;100.00;102353.91;6271272;28;20055;-75
2023/01/03 15:00:51;;;;;;;5.05;2.40;;;;;;;7.52;100.00;102353.03;6271504;28;20049;-74
2023/01/03 15:03:53;;;;;;;7.13;2.47;;;;;;;7.53;100.00;102356.50;6271152;28;20515;-74
2023/01/03 15:06:57;;;;;;;4.20;2.33;;;;;;;7.53;100.00;102359.13;6271299;28;20056;-76
2023/01/03 15:10:21;;;;;;;3.97;2.35;;;;;;;7.48;100.00;102355.72;6271052;28;20078;-75
2023/01/03 15:13:26;;;;;;;7.88;2.20;;;;;;;7.40;100.00;102358.44;6268978;28;20045;-74
2023/01/03 15:16:32;;;;;;;3.67;2.40;;;;;;;7.36;100.00;102362.88;6270912;28;20044;-74